Time;durP1;ratioP1;P1;durP2;ratioP2;P2;SDS_P1;SDS_P2;PMS_P1;PMS_P2;Temp;Humidity;BMP_temperature;BMP_pressure;BME280_temperature;BME280_humidity;BME280_pressure;Samples;Min_cycle;Max_cycle;Signal;HPM_P1;HPM_P2
2022/08/17 03:01:47;;;;;;;47.00;33.10;;;18.50;99.90;;;;;;5327833;23;20051;-85
2022/08/17 03:04:12;;;;;;;42.70;32.35;;;18.50;99.90;;;;;;4921596;29;20052;-86
2022/08/17 03:06:38;;;;;;;41.60;33.50;;;18.50;99.90;;;;;;4905958;29;20098;-86
2022/08/17 03:09:04;;;;;;;51.80;35.95;;;18.50;99.90;;;;;;4921152;29;20542;-82
2022/08/17 03:11:30;;;;;;;58.13;38.22;;;18.50;99.90;;;;;;4906100;29;20035;-85
2022/08/17 03:13:56;;;;;;;57.25;38.50;;;18.50;99.90;;;;;;4938477;29;20044;-85
2022/08/17 03:16:21;;;;;;;64.10;38.58;;;18.50;99.90;;;;;;4938155;29;20050;-86
2022/08/17 03:18:47;;;;;;;64.35;40.03;;;18.50;99.90;;;;;;4938426;29;20036;-85
2022/08/17 03:21:13;;;;;;;39.30;31.88;;;18.50;99.90;;;;;;4938145;29;20391;-87
2022/08/17 03:23:40;;;;;;;45.72;33.20;;;18.50;99.90;;;;;;4920738;29;20036;-85
2022/08/17 03:26:10;;;;;;;66.70;32.42;;;18.50;99.90;;;;;;4920714;29;20051;-85
2022/08/17 03:28:37;;;;;;;57.10;35.85;;;18.50;99.90;;;;;;4920595;29;20213;-86
2022/08/17 03:31:03;;;;;;;72.65;41.42;;;18.50;99.90;;;;;;4920499;29;20051;-85
2022/08/17 03:33:30;;;;;;;57.28;38.30;;;18.50;99.90;;;;;;4905301;29;20391;-84
2022/08/17 03:35:56;;;;;;;55.63;37.10;;;18.40;99.90;;;;;;4937734;29;20039;-87
2022/08/17 03:38:21;;;;;;;68.95;40.80;;;18.40;99.90;;;;;;4920434;29;20032;-84
2022/08/17 03:40:48;;;;;;;79.22;42.55;;;18.40;99.90;;;;;;4920890;29;20107;-85
2022/08/17 03:43:14;;;;;;;58.38;38.50;;;18.40;99.90;;;;;;4937699;29;20091;-86
2022/08/17 03:56:53;;;;;;;44.30;33.00;;;18.30;99.90;;;;;;4920104;29;20090;-85
2022/08/17 03:59:21;;;;;;;45.10;33.35;;;18.30;99.90;;;;;;4905549;29;20134;-85
2022/08/17 04:01:53;;;;;;;60.08;39.65;;;18.30;99.90;;;;;;4937061;29;20047;-85
2022/08/17 04:04:20;;;;;;;47.22;32.80;;;18.30;99.90;;;;;;4920292;29;20075;-86
2022/08/17 04:06:46;;;;;;;42.05;33.17;;;18.40;99.90;;;;;;4919773;29;20046;-86
2022/08/17 04:09:12;;;;;;;39.95;32.47;;;18.40;99.90;;;;;;4920146;29;20123;-85
2022/08/17 04:11:39;;;;;;;35.05;30.05;;;18.40;99.90;;;;;;4920082;29;20489;-86
2022/08/17 04:14:05;;;;;;;37.45;31.02;;;18.40;99.90;;;;;;4919806;29;20046;-86
2022/08/17 04:16:33;;;;;;;54.72;35.50;;;18.40;99.90;;;;;;4936990;29;20044;-84
2022/08/17 04:19:00;;;;;;;53.95;37.35;;;18.40;99.90;;;;;;4919610;29;20491;-84
2022/08/17 04:21:25;;;;;;;48.25;35.33;;;18.40;99.90;;;;;;4919821;29;20353;-86
2022/08/17 04:23:51;;;;;;;41.72;31.42;;;18.40;99.90;;;;;;4903934;29;20130;-84
2022/08/17 04:26:18;;;;;;;37.63;30.63;;;18.40;99.90;;;;;;4919953;29;20036;-82
2022/08/17 04:28:44;;;;;;;40.40;32.80;;;18.40;99.90;;;;;;4919599;29;20039;-85
2022/08/17 04:31:12;;;;;;;42.78;32.38;;;18.40;99.90;;;;;;4919217;29;20090;-86
2022/08/17 04:33:38;;;;;;;37.58;30.52;;;18.40;99.90;;;;;;4936507;29;20073;-86
2022/08/17 04:36:06;;;;;;;36.40;29.83;;;18.40;99.90;;;;;;4920039;29;20044;-86
2022/08/17 04:38:35;;;;;;;43.42;34.20;;;18.40;99.90;;;;;;4903906;29;20522;-86
2022/08/17 04:43:47;;;;;;;45.17;34.53;;;18.50;99.90;;;;;;4919677;29;20059;-85
2022/08/17 04:46:19;;;;;;;49.72;36.00;;;18.50;99.90;;;;;;4936494;29;20467;-85
2022/08/17 04:48:47;;;;;;;61.72;39.42;;;18.50;99.90;;;;;;4920391;29;20056;-85
2022/08/17 04:51:17;;;;;;;60.67;39.67;;;18.50;99.90;;;;;;4920153;29;20044;-86
2022/08/17 04:53:45;;;;;;;63.75;36.00;;;18.50;99.90;;;;;;4904829;29;20130;-85
2022/08/17 04:56:16;;;;;;;77.05;44.05;;;18.40;99.90;;;;;;4919208;29;20047;-85
2022/08/17 04:58:47;;;;;;;56.45;38.42;;;18.40;99.90;;;;;;4904295;29;20390;-86
2022/08/17 05:01:14;;;;;;;57.58;40.60;;;18.40;99.90;;;;;;4936525;29;20058;-86
2022/08/17 05:03:40;;;;;;;55.65;39.25;;;18.40;99.90;;;;;;4919388;29;20115;-85
2022/08/17 05:06:07;;;;;;;70.03;44.55;;;18.40;99.90;;;;;;4919761;29;20551;-85
2022/08/17 05:08:33;;;;;;;72.03;44.95;;;18.50;99.90;;;;;;4919653;29;20384;-85
2022/08/17 05:10:59;;;;;;;53.38;38.05;;;18.50;99.90;;;;;;4937245;29;20036;-88
2022/08/17 05:16:28;;;;;;;66.45;42.63;;;18.50;99.90;;;;;;4922979;29;20094;-86
2022/08/17 05:18:58;;;;;;;59.08;40.45;;;18.60;99.90;;;;;;4923470;29;20052;-87
2022/08/17 05:21:38;;;;;;;66.22;40.63;;;18.60;99.90;;;;;;4907745;29;20087;-86
2022/08/17 05:24:03;;;;;;;70.32;44.65;;;18.60;99.90;;;;;;4923111;29;20043;-82
2022/08/17 05:26:29;;;;;;;73.38;45.83;;;18.60;99.90;;;;;;4922841;29;20039;-85
2022/08/17 05:28:56;;;;;;;63.47;42.92;;;18.60;99.90;;;;;;4922894;29;20448;-82
2022/08/17 05:31:22;;;;;;;70.55;44.17;;;18.60;99.90;;;;;;4939992;29;20052;-84
2022/08/17 05:33:48;;;;;;;71.97;44.95;;;18.70;99.90;;;;;;4939550;29;20107;-82
2022/08/17 05:36:14;;;;;;;62.53;42.00;;;18.70;99.90;;;;;;4940127;29;20044;-81
2022/08/17 05:38:41;;;;;;;61.13;40.90;;;18.70;99.90;;;;;;4939652;29;20047;-84
2022/08/17 05:41:09;;;;;;;59.92;40.30;;;18.70;99.90;;;;;;4905743;29;20047;-85
2022/08/17 05:43:39;;;;;;;60.92;41.05;;;18.70;99.90;;;;;;4922572;29;20058;-83
2022/08/17 05:50:30;;;;;;;74.10;46.05;;;18.50;99.90;;;;;;4846003;29;20224;-85
2022/08/17 05:53:18;;;;;;;74.57;45.80;;;18.40;99.90;;;;;;4849194;29;20154;-83
2022/08/17 05:55:43;;;;;;;74.82;46.28;;;18.40;99.90;;;;;;4922300;29;20062;-84
2022/08/17 05:58:22;;;;;;;64.03;43.10;;;18.40;99.90;;;;;;4922337;29;20502;-83
2022/08/17 06:01:11;;;;;;;71.95;46.10;;;18.40;99.90;;;;;;4939854;29;20052;-86
2022/08/17 06:04:21;;;;;;;72.75;46.30;;;18.40;99.90;;;;;;4907712;29;20118;-85
2022/08/17 06:06:54;;;;;;;74.80;47.25;;;18.40;99.90;;;;;;4926211;29;20380;-85
2022/08/17 06:09:27;;;;;;;78.25;46.72;;;18.40;99.90;;;;;;4927923;29;20111;-86
2022/08/17 06:12:00;;;;;;;78.97;46.50;;;18.50;99.90;;;;;;4911770;29;20051;-86
2022/08/17 06:14:53;;;;;;;70.10;44.58;;;18.50;99.90;;;;;;4943382;29;20031;-84
2022/08/17 06:17:23;;;;;;;71.95;44.65;;;18.60;99.90;;;;;;4951972;28;20054;-88
2022/08/17 06:20:03;;;;;;;67.05;42.30;;;18.60;99.90;;;;;;4952801;28;20056;-87
2022/08/17 06:22:35;;;;;;;69.38;43.70;;;18.60;99.90;;;;;;4924105;29;20039;-86
2022/08/17 06:25:03;;;;;;;73.00;45.42;;;18.70;99.90;;;;;;4908030;29;20050;-86
2022/08/17 06:27:49;;;;;;;66.75;42.85;;;18.70;99.90;;;;;;4940155;29;20046;-87
2022/08/17 06:30:27;;;;;;;68.47;43.13;;;18.80;99.90;;;;;;4923884;29;20130;-84
2022/08/17 06:32:58;;;;;;;69.32;43.05;;;18.90;99.90;;;;;;4921994;29;20039;-83
2022/08/17 06:36:04;;;;;;;56.10;39.90;;;18.90;99.90;;;;;;4904037;29;20043;-85
2022/08/17 06:38:50;;;;;;;56.17;36.90;;;19.00;99.90;;;;;;4920387;29;20050;-86
2022/08/17 06:41:50;;;;;;;58.65;38.33;;;19.00;99.90;;;;;;4920980;29;20051;-85
2022/08/17 06:44:29;;;;;;;62.00;41.63;;;19.10;99.90;;;;;;4922150;29;20437;-88
2022/08/17 06:47:11;;;;;;;62.40;41.35;;;19.10;99.90;;;;;;4922211;29;20079;-85
2022/08/17 06:50:02;;;;;;;70.13;42.78;;;19.10;99.90;;;;;;4922309;29;20499;-84
2022/08/17 06:52:33;;;;;;;65.05;42.47;;;19.10;99.90;;;;;;4939848;29;20035;-86
2022/08/17 06:55:12;;;;;;;70.57;43.00;;;19.10;99.90;;;;;;4940340;29;20043;-86
2022/08/17 06:57:44;;;;;;;71.72;45.10;;;19.10;99.90;;;;;;4906795;29;20055;-85
2022/08/17 07:00:21;;;;;;;76.18;46.38;;;19.10;99.90;;;;;;4922859;29;20079;-87
2022/08/17 07:03:15;;;;;;;72.32;43.40;;;19.10;99.90;;;;;;4922835;29;20141;-87
2022/08/17 07:05:46;;;;;;;73.72;44.67;;;19.20;99.90;;;;;;4939610;29;20044;-86
2022/08/17 07:08:20;;;;;;;70.07;43.72;;;19.20;99.90;;;;;;4923157;29;20492;-86
2022/08/17 07:10:54;;;;;;;76.00;45.45;;;19.20;99.90;;;;;;4905593;29;20082;-86
2022/08/17 07:13:57;;;;;;;79.10;45.92;;;19.20;99.90;;;;;;4940143;29;20043;-88
2022/08/17 07:16:31;;;;;;;71.40;43.95;;;19.20;99.90;;;;;;4939571;29;20579;-89
2022/08/17 07:18:58;;;;;;;67.83;43.60;;;19.20;99.90;;;;;;4923522;29;20054;-87
2022/08/17 07:21:36;;;;;;;72.30;45.08;;;19.20;99.90;;;;;;4906262;29;20039;-86
2022/08/17 07:24:26;;;;;;;79.40;45.95;;;19.30;99.90;;;;;;4939545;29;20345;-86
2022/08/17 07:27:11;;;;;;;74.88;46.08;;;19.30;99.90;;;;;;4921500;29;20115;-85
2022/08/17 07:30:43;;;;;;;;;;;;;;;;;;;;;
2022/08/17 09:16:03;;;;;;;49.25;37.13;;;19.80;99.90;;;;;;4920836;29;20602;-89
2022/08/17 10:28:15;;;;;;;34.65;26.58;;;20.70;99.90;;;;;;4748618;23;20372;-89
2022/08/17 10:31:08;;;;;;;32.67;25.50;;;20.80;99.90;;;;;;4886777;29;20044;-88
2022/08/17 10:34:20;;;;;;;34.67;26.88;;;20.90;99.90;;;;;;4887498;29;20144;-89
2022/08/17 10:41:14;;;;;;;;;;;;;;;;;;;;;
2022/08/17 10:43:57;;;;;;;32.00;25.27;;;21.10;99.90;;;;;;4861848;29;20579;-87
2022/08/17 10:46:51;;;;;;;28.13;23.98;;;21.10;99.90;;;;;;4920868;29;20044;-85
2022/08/17 10:49:16;;;;;;;29.58;23.38;;;21.20;99.90;;;;;;4919653;29;20083;-85
2022/08/17 10:51:47;;;;;;;28.60;22.40;;;21.20;99.90;;;;;;4902348;29;20048;-85
2022/08/17 10:54:33;;;;;;;25.17;21.15;;;21.30;99.90;;;;;;4903212;29;20536;-87
2022/08/17 10:56:58;;;;;;;26.00;21.05;;;21.40;99.90;;;;;;4902254;29;20370;-87
2022/08/17 10:59:36;;;;;;;27.67;21.88;;;21.50;99.90;;;;;;4919255;29;20055;-85
2022/08/17 11:02:24;;;;;;;24.77;20.67;;;21.60;99.90;;;;;;4920048;29;20139;-87
2022/08/17 11:04:59;;;;;;;23.95;20.42;;;21.70;99.90;;;;;;4902066;29;20548;-84
2022/08/17 11:07:43;;;;;;;25.17;20.17;;;21.80;99.90;;;;;;4901961;29;20175;-86
2022/08/17 11:10:45;;;;;;;23.02;19.35;;;21.80;99.90;;;;;;4902242;29;20173;-86
2022/08/17 11:13:43;;;;;;;26.55;21.02;;;21.90;99.90;;;;;;4901744;29;20103;-88
2022/08/17 11:16:31;;;;;;;27.77;20.70;;;22.00;99.90;;;;;;4888054;29;20099;-87
2022/08/17 11:19:15;;;;;;;22.88;18.92;;;22.10;99.90;;;;;;4902551;29;20127;-84
2022/08/17 11:21:51;;;;;;;22.52;19.58;;;22.20;99.90;;;;;;4901517;29;20488;-83
2022/08/17 11:24:40;;;;;;;25.45;21.30;;;22.20;99.90;;;;;;4886003;29;20050;-84
2022/08/17 11:27:29;;;;;;;26.50;22.00;;;22.40;99.90;;;;;;4901517;29;20051;-86
2022/08/17 11:30:02;;;;;;;26.42;22.75;;;22.40;99.90;;;;;;4901723;29;20497;-84
2022/08/17 11:32:44;;;;;;;29.20;24.15;;;22.50;99.90;;;;;;4901198;29;20078;-85
2022/08/17 11:35:24;;;;;;;34.40;29.88;;;22.50;99.90;;;;;;4901214;29;20040;-84
2022/08/17 11:38:27;;;;;;;31.98;28.58;;;22.60;99.90;;;;;;4901684;29;20087;-86
2022/08/17 11:41:18;;;;;;;36.03;29.83;;;22.60;99.90;;;;;;4885738;29;20043;-85
2022/08/17 11:44:06;;;;;;;36.40;29.90;;;22.60;99.90;;;;;;4902289;29;20044;-84
2022/08/17 11:52:48;;;;;;;36.30;30.25;;;22.60;99.90;;;;;;4900914;29;20099;-84
2022/08/17 11:55:25;;;;;;;;;;;22.70;99.90;;;;;;4885987;29;20076;-84
2022/08/17 11:58:01;;;;;;;36.30;28.60;;;22.70;99.90;;;;;;4900915;29;19958;-83
2022/08/17 12:00:45;;;;;;;34.15;29.45;;;22.80;99.90;;;;;;4918708;29;20117;-83
2022/08/17 12:03:25;;;;;;;36.20;29.50;;;22.80;99.90;;;;;;4918106;29;20552;-84
2022/08/17 12:06:05;;;;;;;35.00;28.33;;;22.80;99.90;;;;;;4918373;29;20044;-85
2022/08/17 12:08:33;;;;;;;37.72;27.98;;;22.80;99.90;;;;;;4901232;29;20564;-87
2022/08/17 12:11:30;;;;;;;31.88;25.65;;;22.80;99.90;;;;;;4900778;29;20047;-85
2022/08/17 12:13:58;;;;;;;31.15;26.45;;;22.80;99.90;;;;;;4884989;29;20052;-86
2022/08/17 12:16:24;;;;;;;30.38;25.13;;;22.80;99.90;;;;;;4917460;29;20567;-83
2022/08/17 12:18:57;;;;;;;29.88;25.92;;;22.70;99.90;;;;;;4900450;29;20511;-85
2022/08/17 12:21:30;;;;;;;30.83;26.23;;;22.70;99.90;;;;;;4900463;29;20063;-86
2022/08/17 12:24:08;;;;;;;30.08;24.48;;;22.60;99.90;;;;;;4885280;29;20444;-84
2022/08/17 12:26:35;;;;;;;33.72;25.50;;;22.60;99.90;;;;;;4900402;29;20478;-84
2022/08/17 12:29:10;;;;;;;31.08;26.00;;;22.60;99.90;;;;;;4900579;29;20395;-83
2022/08/17 12:31:46;;;;;;;31.20;25.77;;;22.70;99.90;;;;;;4917645;29;20055;-85
2022/08/17 12:34:26;;;;;;;31.50;24.40;;;22.70;99.90;;;;;;4917329;29;20492;-83
2022/08/17 12:37:03;;;;;;;30.60;25.02;;;22.70;99.90;;;;;;4901008;29;20440;-84
2022/08/17 12:39:29;;;;;;;28.50;24.30;;;22.70;99.90;;;;;;4918302;29;20044;-84
2022/08/17 12:41:58;;;;;;;30.10;24.52;;;22.70;99.90;;;;;;4917840;29;20044;-86
2022/08/17 12:44:25;;;;;;;30.35;24.75;;;22.70;99.90;;;;;;4885386;29;20048;-86
2022/08/17 12:47:13;;;;;;;29.05;25.45;;;22.70;99.90;;;;;;4900401;29;20076;-86
2022/08/17 12:49:41;;;;;;;28.95;23.88;;;22.70;99.90;;;;;;4918023;29;20044;-85
2022/08/17 12:52:13;;;;;;;28.27;24.52;;;22.70;99.90;;;;;;4900980;29;20119;-83
2022/08/17 12:55:05;;;;;;;28.05;22.17;;;22.70;99.90;;;;;;4901179;29;20090;-84
2022/08/17 12:57:37;;;;;;;28.23;22.30;;;22.70;99.90;;;;;;4917286;29;20040;-82
2022/08/17 13:00:19;;;;;;;27.30;22.50;;;22.70;99.90;;;;;;4917150;29;20050;-83
2022/08/17 13:03:06;;;;;;;28.30;22.88;;;22.70;99.90;;;;;;4900320;29;20087;-86
2022/08/17 13:05:36;;;;;;;26.27;22.40;;;22.70;99.90;;;;;;4917465;29;20044;-84
2022/08/17 13:08:20;;;;;;;27.83;22.20;;;22.70;99.90;;;;;;4917179;29;20084;-83
2022/08/17 13:10:56;;;;;;;28.48;23.58;;;22.60;99.90;;;;;;4917035;29;20051;-82
2022/08/17 13:13:29;;;;;;;25.95;22.33;;;22.60;99.90;;;;;;4916850;29;20040;-84
2022/08/17 13:16:13;;;;;;;27.33;22.38;;;22.60;99.90;;;;;;4898357;29;20055;-84
2022/08/17 13:18:44;;;;;;;26.77;21.48;;;22.60;99.90;;;;;;4881215;29;20044;-84
2022/08/17 13:21:20;;;;;;;26.38;21.17;;;22.60;99.90;;;;;;4881241;29;20041;-85
2022/08/17 13:24:12;;;;;;;23.23;19.48;;;22.70;99.90;;;;;;4897933;29;20059;-83
2022/08/17 13:26:46;;;;;;;23.13;18.35;;;22.70;99.90;;;;;;4880997;29;20048;-85
2022/08/17 13:29:23;;;;;;;22.05;18.50;;;22.70;99.90;;;;;;4898179;29;20055;-83
2022/08/17 13:31:53;;;;;;;24.63;20.65;;;22.70;99.90;;;;;;4897851;29;20048;-85
2022/08/17 13:34:25;;;;;;;20.77;18.42;;;22.70;99.90;;;;;;4899621;29;20041;-84
2022/08/17 13:37:12;;;;;;;21.80;18.35;;;22.70;99.90;;;;;;4902341;29;20048;-85
2022/08/17 13:39:42;;;;;;;20.52;18.10;;;22.70;99.90;;;;;;4884937;29;20505;-85
2022/08/17 13:42:31;;;;;;;23.63;18.67;;;22.60;99.90;;;;;;4901891;29;20080;-84
2022/08/17 13:44:58;;;;;;;20.20;17.02;;;22.50;99.90;;;;;;4901866;29;20425;-84
2022/08/17 13:47:25;;;;;;;23.10;19.00;;;22.50;99.90;;;;;;4885108;29;20041;-83
2022/08/17 13:49:52;;;;;;;24.73;19.17;;;22.40;99.90;;;;;;4901653;29;20041;-83
2022/08/17 13:52:41;;;;;;;24.08;20.20;;;22.40;99.90;;;;;;4901466;29;20043;-83
2022/08/17 13:55:19;;;;;;;25.60;20.77;;;22.30;99.90;;;;;;4901986;29;20045;-83
2022/08/17 13:57:51;;;;;;;25.75;19.75;;;22.20;99.90;;;;;;4884602;29;20084;-82
2022/08/17 14:00:31;;;;;;;29.00;23.90;;;22.10;99.90;;;;;;4884852;29;20048;-85
2022/08/17 14:02:58;;;;;;;33.58;24.15;;;22.10;99.90;;;;;;4884759;29;20481;-83
2022/08/17 14:05:25;;;;;;;37.85;27.00;;;22.00;99.90;;;;;;4901072;29;20051;-83
2022/08/17 14:07:57;;;;;;;33.70;25.58;;;21.90;99.90;;;;;;4868676;29;20040;-83
2022/08/17 14:10:23;;;;;;;32.45;26.58;;;21.80;99.90;;;;;;4884008;29;20082;-84
2022/08/17 14:12:51;;;;;;;40.08;29.85;;;21.70;99.90;;;;;;4901352;29;20052;-83
2022/08/17 14:15:23;;;;;;;45.83;34.47;;;21.50;99.90;;;;;;4884106;29;20052;-83
2022/08/17 14:17:55;;;;;;;38.70;29.67;;;21.40;99.90;;;;;;4868917;29;20060;-82
2022/08/17 14:20:38;;;;;;;44.92;31.77;;;21.30;99.90;;;;;;4869605;29;20223;-83
2022/08/17 14:23:49;;;;;;;;;;;;;;;;;;;;;
2022/08/17 15:03:57;;;;;;;43.65;32.92;;;21.00;99.90;;;;;;4617359;23;20412;-84
2022/08/17 15:11:10;;;;;;;;;;;;;;;;;;;;;
2022/08/17 15:18:47;;;;;;;;;;;;;;;;;;;;;
2022/08/17 15:21:51;;;;;;;;;;;;;;;;;;;;;
2022/08/17 15:25:09;;;;;;;58.20;37.63;;;20.60;99.90;;;;;;4842758;29;20107;-84
2022/08/17 15:28:13;;;;;;;;;;;;;;;;;;;;;
2022/08/17 15:30:43;;;;;;;57.05;39.03;;;20.60;99.90;;;;;;4882967;29;20108;-84
2022/08/17 15:33:46;;;;;;;57.17;39.13;;;20.60;99.90;;;;;;4882288;29;20492;-84
2022/08/17 15:36:10;;;;;;;50.42;35.10;;;20.60;99.90;;;;;;4882003;29;20052;-85
2022/08/17 15:38:39;;;;;;;52.63;36.53;;;20.50;99.90;;;;;;4867473;29;20048;-83
2022/08/17 15:41:14;;;;;;;51.10;36.78;;;20.50;99.90;;;;;;4882674;29;20051;-81
2022/08/17 15:43:41;;;;;;;45.78;35.60;;;20.40;99.90;;;;;;4900278;29;20136;-82
2022/08/17 15:46:17;;;;;;;62.75;40.05;;;20.40;99.90;;;;;;4882594;29;20052;-83
2022/08/17 15:48:46;;;;;;;46.80;33.47;;;20.40;99.90;;;;;;4899685;29;20101;-82
2022/08/17 15:51:17;;;;;;;50.20;35.22;;;20.40;99.90;;;;;;4899063;29;20196;-83
2022/08/17 15:53:46;;;;;;;49.75;35.47;;;20.40;99.90;;;;;;4882353;29;20055;-83
2022/08/17 15:56:13;;;;;;;57.15;37.13;;;20.50;99.90;;;;;;4899104;29;20123;-83
2022/08/17 15:58:41;;;;;;;42.22;32.20;;;20.40;99.90;;;;;;4867643;29;20397;-83
2022/08/17 16:01:11;;;;;;;51.63;34.33;;;20.40;99.90;;;;;;4882630;29;20040;-83
2022/08/17 16:03:37;;;;;;;51.10;35.60;;;20.40;99.90;;;;;;4882158;29;20037;-84
2022/08/17 16:06:03;;;;;;;44.65;32.97;;;20.30;99.90;;;;;;4899237;29;20050;-84
2022/08/17 16:08:29;;;;;;;37.38;29.88;;;20.20;99.90;;;;;;4898736;29;20060;-84
2022/08/17 16:10:59;;;;;;;43.75;31.42;;;20.20;99.90;;;;;;4898891;29;20040;-84
2022/08/17 16:13:27;;;;;;;40.25;29.25;;;20.10;99.90;;;;;;4882217;29;20400;-82
2022/08/17 16:15:56;;;;;;;37.20;28.05;;;20.10;99.90;;;;;;4882387;29;20044;-83
2022/08/17 16:18:29;;;;;;;41.58;29.27;;;20.00;99.90;;;;;;4899334;29;20049;-84
2022/08/17 16:21:24;;;;;;;37.95;28.77;;;20.00;99.90;;;;;;4898268;29;20481;-84
2022/08/17 16:23:52;;;;;;;36.00;27.73;;;20.00;99.90;;;;;;4898304;29;20056;-80
2022/08/17 16:26:18;;;;;;;45.53;31.63;;;20.00;99.90;;;;;;4881966;29;20074;-78
2022/08/17 16:28:45;;;;;;;39.53;29.27;;;19.90;99.90;;;;;;4882720;29;20040;-79
2022/08/17 16:31:11;;;;;;;38.15;27.95;;;19.90;99.90;;;;;;4898826;29;20047;-75
2022/08/17 16:33:50;;;;;;;48.30;32.83;;;19.90;99.90;;;;;;4866116;29;20412;-85
2022/08/17 16:36:16;;;;;;;51.88;32.00;;;19.90;99.90;;;;;;4898864;29;20040;-83
2022/08/17 16:38:43;;;;;;;41.60;30.35;;;19.80;99.90;;;;;;4882621;29;20056;-83
2022/08/17 16:41:09;;;;;;;41.53;28.83;;;19.80;99.90;;;;;;4881938;29;20044;-84
2022/08/17 16:43:34;;;;;;;39.33;28.23;;;19.70;99.90;;;;;;4898404;29;20552;-82
2022/08/17 16:46:00;;;;;;;41.30;29.23;;;19.70;99.90;;;;;;4898628;29;20135;-83
2022/08/17 16:48:27;;;;;;;42.38;25.30;;;19.70;99.90;;;;;;4898384;29;20104;-83
2022/08/17 16:50:54;;;;;;;36.72;27.08;;;19.60;99.90;;;;;;4881682;29;20441;-83
2022/08/17 16:53:20;;;;;;;43.53;27.98;;;19.60;99.90;;;;;;4898517;29;20116;-83
2022/08/17 16:55:47;;;;;;;37.90;26.55;;;19.50;99.90;;;;;;4881509;29;20128;-83
2022/08/17 16:58:13;;;;;;;41.58;27.38;;;19.50;99.90;;;;;;4881356;29;20049;-83
2022/08/17 17:00:41;;;;;;;38.67;27.23;;;19.40;99.90;;;;;;4898254;29;20055;-83
2022/08/17 17:03:19;;;;;;;38.85;27.73;;;19.40;99.90;;;;;;4865942;29;20048;-83
2022/08/17 17:06:13;;;;;;;38.42;27.63;;;19.40;99.90;;;;;;4881411;29;20057;-84
2022/08/17 17:09:04;;;;;;;39.30;27.00;;;19.30;99.90;;;;;;4899452;29;20043;-83
2022/08/17 17:11:43;;;;;;;33.95;26.10;;;19.30;99.90;;;;;;4897346;29;20060;-84
2022/08/17 17:14:15;;;;;;;35.10;24.73;;;19.30;99.90;;;;;;4901124;29;20041;-85
2022/08/17 17:17:02;;;;;;;35.15;24.05;;;19.30;99.90;;;;;;4885219;29;20060;-84
2022/08/17 17:19:37;;;;;;;29.35;22.25;;;19.30;99.90;;;;;;4885273;29;20056;-85
2022/08/17 17:22:20;;;;;;;30.75;22.75;;;19.30;99.90;;;;;;4885531;29;20382;-85
2022/08/17 17:25:13;;;;;;;34.03;23.92;;;19.30;99.90;;;;;;4885545;29;20477;-83
2022/08/17 17:27:57;;;;;;;27.88;21.55;;;19.20;99.90;;;;;;4885279;29;20127;-85
2022/08/17 17:30:47;;;;;;;36.07;23.67;;;19.20;99.90;;;;;;4900859;29;20064;-84
2022/08/17 17:33:23;;;;;;;37.28;24.48;;;19.20;99.90;;;;;;4885155;29;20123;-84
2022/08/17 17:35:55;;;;;;;28.83;21.23;;;19.20;99.90;;;;;;4900517;29;20176;-85
2022/08/17 17:38:43;;;;;;;37.85;24.00;;;19.20;99.90;;;;;;4884858;29;20047;-84
2022/08/17 17:41:19;;;;;;;31.55;22.17;;;19.20;99.90;;;;;;4884794;29;20124;-84
2022/08/17 17:43:48;;;;;;;27.65;21.73;;;19.20;99.90;;;;;;4869439;29;20193;-85
2022/08/17 17:46:24;;;;;;;32.35;22.08;;;19.20;99.90;;;;;;4901670;29;20044;-84
2022/08/17 17:48:50;;;;;;;31.75;20.73;;;19.10;99.90;;;;;;4884554;29;20493;-83
2022/08/17 17:51:46;;;;;;;29.95;20.15;;;19.10;99.90;;;;;;4884545;29;20047;-84
2022/08/17 17:54:27;;;;;;;30.17;21.10;;;19.10;99.90;;;;;;4884559;29;20045;-84
2022/08/17 17:57:23;;;;;;;29.73;21.35;;;19.10;99.90;;;;;;4900183;29;20049;-84
2022/08/17 18:00:01;;;;;;;31.23;21.25;;;19.10;99.90;;;;;;4864099;29;20056;-84
2022/08/17 18:02:54;;;;;;;34.17;22.33;;;19.10;99.90;;;;;;4901486;29;20049;-84
2022/08/17 18:05:46;;;;;;;33.08;21.85;;;19.10;99.90;;;;;;4902072;29;20091;-82
2022/08/17 18:08:23;;;;;;;28.30;20.23;;;19.10;99.90;;;;;;4884352;29;20540;-84
2022/08/17 18:11:13;;;;;;;32.75;21.95;;;19.10;99.90;;;;;;4884304;29;20052;-84
2022/08/17 18:14:18;;;;;;;34.80;22.70;;;19.10;99.90;;;;;;4901956;29;20040;-84
2022/08/17 18:16:45;;;;;;;30.90;20.63;;;19.10;99.90;;;;;;4868972;29;20519;-83
2022/08/17 18:19:19;;;;;;;27.60;20.15;;;19.10;99.90;;;;;;4883775;29;20140;-83
2022/08/17 18:21:50;;;;;;;29.95;21.63;;;19.10;99.90;;;;;;4883989;29;20053;-84
2022/08/17 18:24:31;;;;;;;34.63;23.10;;;19.10;99.90;;;;;;4884031;29;20049;-84
2022/08/17 18:26:59;;;;;;;34.97;21.50;;;19.10;99.90;;;;;;4883870;29;20040;-84
2022/08/17 18:29:34;;;;;;;33.45;20.63;;;19.00;99.90;;;;;;4900928;29;20040;-83
2022/08/17 18:32:22;;;;;;;30.05;19.13;;;19.00;99.90;;;;;;4883825;29;20047;-85
2022/08/17 18:34:51;;;;;;;34.40;22.35;;;19.00;99.90;;;;;;4883970;29;20121;-85
2022/08/17 18:37:38;;;;;;;33.15;21.60;;;19.00;99.90;;;;;;4883862;29;20060;-84
2022/08/17 18:40:16;;;;;;;29.75;21.05;;;19.00;99.90;;;;;;4899430;29;20057;-84
2022/08/17 18:42:45;;;;;;;41.92;23.58;;;18.90;99.90;;;;;;4884000;29;20393;-84
2022/08/17 18:45:11;;;;;;;28.92;19.70;;;18.90;99.90;;;;;;4900790;29;20085;-84
2022/08/17 18:47:51;;;;;;;27.10;19.27;;;19.00;99.90;;;;;;4868012;29;20442;-84
2022/08/17 18:50:26;;;;;;;37.03;21.35;;;18.90;99.90;;;;;;4900543;29;20052;-85
2022/08/17 18:52:54;;;;;;;26.95;18.65;;;18.90;99.90;;;;;;4900483;29;20045;-85
2022/08/17 18:55:30;;;;;;;24.92;17.02;;;18.90;99.90;;;;;;4900218;29;20389;-85
2022/08/17 18:57:56;;;;;;;;;;;18.80;99.90;;;;;;4884071;29;20548;-84
2022/08/17 19:00:28;;;;;;;23.50;17.25;;;18.80;99.90;;;;;;4883320;29;20146;-84
2022/08/17 19:02:59;;;;;;;26.90;17.45;;;18.80;99.90;;;;;;4901810;29;20517;-85
2022/08/17 19:05:38;;;;;;;27.58;18.42;;;18.80;99.90;;;;;;4883796;29;20130;-85
2022/08/17 19:08:29;;;;;;;30.65;21.33;;;18.80;99.90;;;;;;4899828;29;20472;-84
2022/08/17 19:11:17;;;;;;;28.70;18.65;;;18.80;99.90;;;;;;4883926;29;20040;-87
2022/08/17 19:13:50;;;;;;;27.45;18.23;;;18.80;99.90;;;;;;4884044;29;20053;-85
2022/08/17 19:16:45;;;;;;;28.75;18.83;;;18.80;99.90;;;;;;4868911;29;20434;-87
2022/08/17 19:19:17;;;;;;;30.50;19.60;;;18.80;99.90;;;;;;4883335;29;20052;-85
2022/08/17 19:21:49;;;;;;;24.85;16.67;;;18.80;99.90;;;;;;4900477;29;20051;-84
2022/08/17 19:24:23;;;;;;;29.88;18.05;;;18.70;99.90;;;;;;4869168;29;20181;-84
2022/08/17 19:27:09;;;;;;;27.35;17.35;;;18.60;99.90;;;;;;4884304;29;20076;-85
2022/08/17 19:29:52;;;;;;;26.17;18.23;;;18.70;99.90;;;;;;4900805;29;20041;-84
2022/08/17 19:32:25;;;;;;;25.65;17.40;;;18.60;99.90;;;;;;4883542;29;20055;-85
2022/08/17 19:34:51;;;;;;;33.00;18.02;;;18.60;99.90;;;;;;4883765;29;20052;-85
2022/08/17 19:37:37;;;;;;;26.83;17.75;;;18.60;99.90;;;;;;4884457;29;20048;-85
2022/08/17 19:40:30;;;;;;;28.65;17.92;;;18.60;99.90;;;;;;4898759;29;20044;-85
2022/08/17 19:43:04;;;;;;;23.23;15.23;;;18.50;99.90;;;;;;4900860;29;20532;-84
2022/08/17 19:46:01;;;;;;;28.08;15.75;;;18.60;99.90;;;;;;4882860;29;20401;-86
2022/08/17 19:48:38;;;;;;;24.25;15.27;;;18.50;99.90;;;;;;4883125;29;20048;-84
2022/08/17 19:51:10;;;;;;;30.05;15.80;;;18.60;99.90;;;;;;4900239;29;20040;-83
2022/08/17 19:53:56;;;;;;;26.08;13.95;;;18.50;99.90;;;;;;4898541;29;20037;-84
2022/08/17 19:56:35;;;;;;;26.48;15.40;;;18.60;99.90;;;;;;4899159;29;20044;-85
2022/08/17 19:59:24;;;;;;;30.05;15.82;;;18.50;99.90;;;;;;4899669;29;20412;-83
2022/08/17 20:01:58;;;;;;;25.80;13.27;;;18.60;99.90;;;;;;4883256;29;20088;-83
2022/08/17 20:04:39;;;;;;;30.95;15.45;;;18.50;99.90;;;;;;4882590;29;20084;-84
2022/08/17 20:07:16;;;;;;;35.65;16.63;;;18.50;99.90;;;;;;4882214;29;20128;-83
2022/08/17 20:09:48;;;;;;;34.13;16.40;;;18.50;99.90;;;;;;4882390;29;20389;-82
2022/08/17 20:12:22;;;;;;;30.33;14.90;;;18.50;99.90;;;;;;4882093;29;20047;-85
2022/08/17 20:15:05;;;;;;;30.70;16.00;;;18.50;99.90;;;;;;4899234;29;20044;-84
2022/08/17 20:17:36;;;;;;;34.30;16.20;;;18.50;99.90;;;;;;4899071;29;20127;-83
2022/08/17 20:20:02;;;;;;;35.45;17.35;;;18.50;99.90;;;;;;4898876;29;20076;-85
2022/08/17 20:22:30;;;;;;;31.20;16.63;;;18.50;99.90;;;;;;4897660;29;20492;-84
2022/08/17 20:25:08;;;;;;;29.85;15.68;;;18.50;99.90;;;;;;4898740;29;20059;-83
2022/08/17 20:27:47;;;;;;;34.20;16.80;;;18.50;99.90;;;;;;4882135;29;20481;-83
2022/08/17 20:30:33;;;;;;;31.27;16.77;;;18.50;99.90;;;;;;4897771;29;20074;-84
2022/08/17 20:33:01;;;;;;;34.08;17.77;;;18.50;99.90;;;;;;4875780;29;20155;-83